sensor_id;sensor_type;location;lat;lon;timestamp;pressure;altitude;pressure_sealevel;temperature;humidity
75604;BME280;64187;51.010;13.792;2023-04-24T00:03:37;99019.94;;;12.20;78.25
75604;BME280;64187;51.010;13.792;2023-04-24T00:08:37;99020.91;;;12.29;77.59
75604;BME280;64187;51.010;13.792;2023-04-24T00:13:37;99008.53;;;12.47;77.31
75604;BME280;64187;51.010;13.792;2023-04-24T00:18:36;99017.03;;;12.40;77.38
75604;BME280;64187;51.010;13.792;2023-04-24T00:23:35;99002.72;;;12.29;78.12
75604;BME280;64187;51.010;13.792;2023-04-24T00:28:33;99024.78;;;12.52;77.31
75604;BME280;64187;51.010;13.792;2023-04-24T00:33:34;99043.44;;;12.29;78.47
75604;BME280;64187;51.010;13.792;2023-04-24T00:38:33;99040.97;;;12.33;78.33
75604;BME280;64187;51.010;13.792;2023-04-24T00:43:32;99037.63;;;12.41;78.27
75604;BME280;64187;51.010;13.792;2023-04-24T00:48:31;99032.28;;;12.02;79.42
75604;BME280;64187;51.010;13.792;2023-04-24T00:53:30;99023.84;;;12.38;78.22
75604;BME280;64187;51.010;13.792;2023-04-24T00:58:29;99019.38;;;12.23;79.08
75604;BME280;64187;51.010;13.792;2023-04-24T01:03:30;99024.88;;;12.42;78.10
75604;BME280;64187;51.010;13.792;2023-04-24T01:08:30;99014.59;;;12.39;78.64
75604;BME280;64187;51.010;13.792;2023-04-24T01:13:31;99020.69;;;12.55;78.18
75604;BME280;64187;51.010;13.792;2023-04-24T01:18:30;99020.44;;;12.51;78.07
75604;BME280;64187;51.010;13.792;2023-04-24T01:23:29;99019.84;;;12.54;78.21
75604;BME280;64187;51.010;13.792;2023-04-24T01:28:31;99026.13;;;12.55;77.92
75604;BME280;64187;51.010;13.792;2023-04-24T01:33:30;99026.69;;;12.52;78.23
75604;BME280;64187;51.010;13.792;2023-04-24T01:38:28;99032.25;;;12.36;78.89
75604;BME280;64187;51.010;13.792;2023-04-24T01:43:28;99023.97;;;12.52;78.44
75604;BME280;64187;51.010;13.792;2023-04-24T01:48:29;99022.47;;;12.40;78.88
75604;BME280;64187;51.010;13.792;2023-04-24T01:53:28;99025.88;;;12.51;79.09
75604;BME280;64187;51.010;13.792;2023-04-24T01:58:27;99022.47;;;12.64;77.82
75604;BME280;64187;51.010;13.792;2023-04-24T02:03:27;99020.03;;;12.39;79.14
75604;BME280;64187;51.010;13.792;2023-04-24T02:08:28;99016.19;;;12.45;78.88
75604;BME280;64187;51.010;13.792;2023-04-24T02:13:27;99016.56;;;12.33;79.50
75604;BME280;64187;51.010;13.792;2023-04-24T02:18:26;99020.44;;;12.51;78.46
75604;BME280;64187;51.010;13.792;2023-04-24T02:23:25;99015.88;;;12.46;78.97
75604;BME280;64187;51.010;13.792;2023-04-24T02:28:25;99020.13;;;12.58;78.29
75604;BME280;64187;51.010;13.792;2023-04-24T02:33:24;99012.25;;;12.56;78.74
75604;BME280;64187;51.010;13.792;2023-04-24T02:38:23;99015.44;;;12.63;78.34
75604;BME280;64187;51.010;13.792;2023-04-24T02:43:22;99023.31;;;12.36;79.65
75604;BME280;64187;51.010;13.792;2023-04-24T02:48:21;99016.50;;;12.38;79.78
75604;BME280;64187;51.010;13.792;2023-04-24T02:53:20;99017.81;;;12.12;80.65
75604;BME280;64187;51.010;13.792;2023-04-24T02:58:19;99014.84;;;12.13;80.62
75604;BME280;64187;51.010;13.792;2023-04-24T03:03:18;99017.78;;;12.17;80.36
75604;BME280;64187;51.010;13.792;2023-04-24T03:08:18;99013.84;;;12.33;79.55
75604;BME280;64187;51.010;13.792;2023-04-24T03:13:17;99017.41;;;12.28;79.34
75604;BME280;64187;51.010;13.792;2023-04-24T03:18:15;99015.38;;;12.15;80.37
75604;BME280;64187;51.010;13.792;2023-04-24T03:23:15;99006.13;;;12.16;80.23
75604;BME280;64187;51.010;13.792;2023-04-24T03:28:14;99003.09;;;12.23;80.03
75604;BME280;64187;51.010;13.792;2023-04-24T03:33:16;99018.94;;;12.40;79.33
75604;BME280;64187;51.010;13.792;2023-04-24T03:38:25;99020.34;;;12.32;79.47
75604;BME280;64187;51.010;13.792;2023-04-24T03:43:34;99020.31;;;12.37;79.46
75604;BME280;64187;51.010;13.792;2023-04-24T03:48:34;99025.06;;;12.21;80.23
75604;BME280;64187;51.010;13.792;2023-04-24T03:53:33;99027.63;;;12.37;79.61
75604;BME280;64187;51.010;13.792;2023-04-24T03:58:32;99038.81;;;12.01;80.76
75604;BME280;64187;51.010;13.792;2023-04-24T04:03:31;99038.63;;;12.21;79.99
75604;BME280;64187;51.010;13.792;2023-04-24T04:08:31;99047.25;;;12.28;80.01
75604;BME280;64187;51.010;13.792;2023-04-24T04:13:30;99053.22;;;12.31;79.85
75604;BME280;64187;51.010;13.792;2023-04-24T04:18:29;99042.94;;;12.27;80.17
75604;BME280;64187;51.010;13.792;2023-04-24T04:23:28;99059.06;;;12.43;79.01
75604;BME280;64187;51.010;13.792;2023-04-24T04:29:00;99051.81;;;12.33;80.26
75604;BME280;64187;51.010;13.792;2023-04-24T04:34:00;99051.84;;;12.86;81.11
75604;BME280;64187;51.010;13.792;2023-04-24T04:39:02;99040.09;;;14.75;71.85
75604;BME280;64187;51.010;13.792;2023-04-24T04:44:25;99043.66;;;14.76;70.11
75604;BME280;64187;51.010;13.792;2023-04-24T04:49:29;99039.69;;;15.37;67.89
75604;BME280;64187;51.010;13.792;2023-04-24T04:54:30;99046.25;;;15.22;67.93
75604;BME280;64187;51.010;13.792;2023-04-24T04:59:29;99047.44;;;15.44;66.95
75604;BME280;64187;51.010;13.792;2023-04-24T05:04:34;99054.78;;;15.57;69.89
75604;BME280;64187;51.010;13.792;2023-04-24T05:09:34;99057.97;;;15.50;68.31
75604;BME280;64187;51.010;13.792;2023-04-24T05:14:35;99062.09;;;14.32;71.24
75604;BME280;64187;51.010;13.792;2023-04-24T05:19:35;99065.22;;;14.07;72.35
75604;BME280;64187;51.010;13.792;2023-04-24T05:24:37;99057.16;;;14.02;71.41
75604;BME280;64187;51.010;13.792;2023-04-24T05:29:51;99050.94;;;14.15;72.41
75604;BME280;64187;51.010;13.792;2023-04-24T05:34:50;99057.78;;;14.12;71.33
75604;BME280;64187;51.010;13.792;2023-04-24T05:39:49;99055.25;;;14.16;69.92
75604;BME280;64187;51.010;13.792;2023-04-24T05:44:48;99049.69;;;14.26;68.25
75604;BME280;64187;51.010;13.792;2023-04-24T05:49:51;99051.63;;;14.39;66.54
75604;BME280;64187;51.010;13.792;2023-04-24T05:54:50;99053.50;;;14.58;65.16
75604;BME280;64187;51.010;13.792;2023-04-24T05:59:53;99067.63;;;14.60;64.24
75604;BME280;64187;51.010;13.792;2023-04-24T06:04:53;99064.28;;;14.63;64.26
75604;BME280;64187;51.010;13.792;2023-04-24T06:09:52;99065.75;;;14.74;63.73
75604;BME280;64187;51.010;13.792;2023-04-24T06:14:52;99064.94;;;14.88;63.43
75604;BME280;64187;51.010;13.792;2023-04-24T06:19:56;99065.84;;;14.50;61.92
75604;BME280;64187;51.010;13.792;2023-04-24T06:24:56;99072.13;;;15.11;62.21
75604;BME280;64187;51.010;13.792;2023-04-24T06:29:55;99076.72;;;15.52;60.72
75604;BME280;64187;51.010;13.792;2023-04-24T06:34:54;99071.69;;;15.73;59.10
75604;BME280;64187;51.010;13.792;2023-04-24T06:39:55;99071.69;;;15.45;61.05
75604;BME280;64187;51.010;13.792;2023-04-24T06:44:54;99081.19;;;15.34;61.01
75604;BME280;64187;51.010;13.792;2023-04-24T06:49:53;99072.34;;;15.79;59.72
75604;BME280;64187;51.010;13.792;2023-04-24T06:54:52;99076.41;;;15.81;57.72
75604;BME280;64187;51.010;13.792;2023-04-24T06:59:50;99083.88;;;16.34;56.65
75604;BME280;64187;51.010;13.792;2023-04-24T07:04:49;99085.78;;;16.56;56.68
75604;BME280;64187;51.010;13.792;2023-04-24T07:09:48;99090.47;;;16.33;56.10
75604;BME280;64187;51.010;13.792;2023-04-24T07:14:50;99093.81;;;16.53;55.92
75604;BME280;64187;51.010;13.792;2023-04-24T07:19:49;99097.97;;;16.50;55.52
75604;BME280;64187;51.010;13.792;2023-04-24T07:24:48;99088.44;;;17.01;53.69
75604;BME280;64187;51.010;13.792;2023-04-24T07:29:47;99099.00;;;16.63;55.30
75604;BME280;64187;51.010;13.792;2023-04-24T07:34:46;99094.16;;;16.60;55.78
75604;BME280;64187;51.010;13.792;2023-04-24T07:39:44;99100.38;;;16.52;55.92
75604;BME280;64187;51.010;13.792;2023-04-24T07:44:43;99095.13;;;16.64;56.21
75604;BME280;64187;51.010;13.792;2023-04-24T07:49:44;99100.78;;;16.90;55.07
75604;BME280;64187;51.010;13.792;2023-04-24T07:54:43;99099.16;;;16.67;54.73
75604;BME280;64187;51.010;13.792;2023-04-24T07:59:43;99105.53;;;16.31;55.50
75604;BME280;64187;51.010;13.792;2023-04-24T08:04:42;99109.66;;;16.73;54.37
75604;BME280;64187;51.010;13.792;2023-04-24T08:09:41;99103.53;;;16.99;53.13
75604;BME280;64187;51.010;13.792;2023-04-24T08:14:40;99107.44;;;17.47;51.97
75604;BME280;64187;51.010;13.792;2023-04-24T08:19:40;99103.28;;;17.09;53.91
75604;BME280;64187;51.010;13.792;2023-04-24T08:24:46;99108.06;;;17.04;53.67
75604;BME280;64187;51.010;13.792;2023-04-24T08:29:45;99105.00;;;17.45;52.09
75604;BME280;64187;51.010;13.792;2023-04-24T08:34:44;99101.78;;;17.34;51.14
75604;BME280;64187;51.010;13.792;2023-04-24T08:39:46;99114.31;;;17.27;50.98
75604;BME280;64187;51.010;13.792;2023-04-24T08:44:45;99111.13;;;17.51;51.36
75604;BME280;64187;51.010;13.792;2023-04-24T08:49:44;99106.69;;;17.15;50.67
75604;BME280;64187;51.010;13.792;2023-04-24T08:54:45;99104.59;;;17.12;51.35
75604;BME280;64187;51.010;13.792;2023-04-24T08:59:46;99120.19;;;16.80;49.50
75604;BME280;64187;51.010;13.792;2023-04-24T09:04:45;99112.03;;;17.20;51.08
75604;BME280;64187;51.010;13.792;2023-04-24T09:09:46;99112.13;;;17.63;48.40
75604;BME280;64187;51.010;13.792;2023-04-24T09:14:45;99113.47;;;17.26;47.39
75604;BME280;64187;51.010;13.792;2023-04-24T09:19:44;99115.78;;;17.41;46.82
75604;BME280;64187;51.010;13.792;2023-04-24T09:24:45;99120.94;;;17.43;47.43
75604;BME280;64187;51.010;13.792;2023-04-24T09:29:54;99117.19;;;17.30;46.92
75604;BME280;64187;51.010;13.792;2023-04-24T09:35:14;99111.00;;;17.07;46.75
75604;BME280;64187;51.010;13.792;2023-04-24T09:40:21;99104.03;;;16.70;47.90
75604;BME280;64187;51.010;13.792;2023-04-24T09:45:20;99115.13;;;16.73;47.77
75604;BME280;64187;51.010;13.792;2023-04-24T09:50:19;99109.00;;;16.90;49.23
75604;BME280;64187;51.010;13.792;2023-04-24T09:55:20;99108.56;;;17.06;48.09
75604;BME280;64187;51.010;13.792;2023-04-24T10:00:22;99109.09;;;17.16;47.75
75604;BME280;64187;51.010;13.792;2023-04-24T10:05:30;99113.47;;;17.26;46.95
75604;BME280;64187;51.010;13.792;2023-04-24T10:10:31;99120.88;;;17.74;46.89
75604;BME280;64187;51.010;13.792;2023-04-24T10:15:31;99116.84;;;17.72;45.54
75604;BME280;64187;51.010;13.792;2023-04-24T10:20:30;99117.28;;;17.16;45.93
75604;BME280;64187;51.010;13.792;2023-04-24T10:25:33;99110.28;;;17.33;45.93
75604;BME280;64187;51.010;13.792;2023-04-24T10:30:35;99109.66;;;17.36;45.81
75604;BME280;64187;51.010;13.792;2023-04-24T10:35:37;99114.41;;;17.61;46.90
75604;BME280;64187;51.010;13.792;2023-04-24T10:40:36;99102.53;;;18.18;46.37
75604;BME280;64187;51.010;13.792;2023-04-24T10:45:35;99102.50;;;18.53;46.29
75604;BME280;64187;51.010;13.792;2023-04-24T10:50:45;99112.22;;;18.16;43.63
75604;BME280;64187;51.010;13.792;2023-04-24T10:55:49;99102.81;;;17.73;45.56
75604;BME280;64187;51.010;13.792;2023-04-24T11:00:58;99100.53;;;17.58;45.76
75604;BME280;64187;51.010;13.792;2023-04-24T11:06:03;99109.31;;;17.95;46.30
75604;BME280;64187;51.010;13.792;2023-04-24T11:11:08;99107.06;;;17.31;46.90
75604;BME280;64187;51.010;13.792;2023-04-24T11:16:13;99106.97;;;17.05;48.85
75604;BME280;64187;51.010;13.792;2023-04-24T11:21:12;99116.44;;;16.76;50.24
75604;BME280;64187;51.010;13.792;2023-04-24T11:26:12;99129.16;;;17.03;48.79
75604;BME280;64187;51.010;13.792;2023-04-24T11:31:34;99120.91;;;16.94;50.04
75604;BME280;64187;51.010;13.792;2023-04-24T11:36:35;99133.25;;;17.72;49.87
75604;BME280;64187;51.010;13.792;2023-04-24T11:41:34;99131.63;;;17.62;50.54
75604;BME280;64187;51.010;13.792;2023-04-24T11:46:33;99124.88;;;17.77;48.71
75604;BME280;64187;51.010;13.792;2023-04-24T11:51:34;99118.63;;;18.63;47.68
75604;BME280;64187;51.010;13.792;2023-04-24T11:56:47;99123.31;;;17.36;49.54
75604;BME280;64187;51.010;13.792;2023-04-24T12:01:46;99110.78;;;17.43;49.54
75604;BME280;64187;51.010;13.792;2023-04-24T12:07:04;99109.44;;;18.50;46.31
75604;BME280;64187;51.010;13.792;2023-04-24T12:12:06;99105.78;;;18.12;42.51
75604;BME280;64187;51.010;13.792;2023-04-24T12:17:05;99094.22;;;18.97;41.85
75604;BME280;64187;51.010;13.792;2023-04-24T12:22:05;99113.97;;;18.20;41.88
75604;BME280;64187;51.010;13.792;2023-04-24T12:27:04;99124.69;;;17.07;41.63
75604;BME280;64187;51.010;13.792;2023-04-24T12:32:03;99116.31;;;16.81;42.84
75604;BME280;64187;51.010;13.792;2023-04-24T12:37:10;99109.38;;;17.06;41.72
75604;BME280;64187;51.010;13.792;2023-04-24T12:42:09;99105.41;;;17.12;40.37
75604;BME280;64187;51.010;13.792;2023-04-24T12:47:10;99099.91;;;17.70;39.12
75604;BME280;64187;51.010;13.792;2023-04-24T12:52:10;99109.81;;;17.97;39.85
75604;BME280;64187;51.010;13.792;2023-04-24T12:57:09;99117.19;;;17.30;41.02
75604;BME280;64187;51.010;13.792;2023-04-24T13:02:08;99113.66;;;16.90;40.31
75604;BME280;64187;51.010;13.792;2023-04-24T13:07:08;99112.97;;;17.24;40.52
75604;BME280;64187;51.010;13.792;2023-04-24T13:12:08;99107.72;;;17.36;39.06
75604;BME280;64187;51.010;13.792;2023-04-24T13:17:07;99100.09;;;17.16;39.33
75604;BME280;64187;51.010;13.792;2023-04-24T13:22:06;99101.09;;;18.29;38.76
75604;BME280;64187;51.010;13.792;2023-04-24T13:27:05;99102.38;;;18.32;33.74
75604;BME280;64187;51.010;13.792;2023-04-24T13:32:04;99097.72;;;18.24;34.62
75604;BME280;64187;51.010;13.792;2023-04-24T13:37:04;99108.63;;;17.72;34.84
75604;BME280;64187;51.010;13.792;2023-04-24T13:42:04;99107.31;;;17.78;36.56
75604;BME280;64187;51.010;13.792;2023-04-24T13:47:02;99107.28;;;17.52;38.12
75604;BME280;64187;51.010;13.792;2023-04-24T13:52:02;99108.34;;;17.33;36.55
75604;BME280;64187;51.010;13.792;2023-04-24T13:57:01;99108.47;;;16.79;37.54
75604;BME280;64187;51.010;13.792;2023-04-24T14:02:01;99114.41;;;16.59;38.21
75604;BME280;64187;51.010;13.792;2023-04-24T14:07:00;99115.38;;;17.17;37.35
75604;BME280;64187;51.010;13.792;2023-04-24T14:12:00;99108.50;;;17.28;36.75
75604;BME280;64187;51.010;13.792;2023-04-24T14:17:01;99105.34;;;17.52;36.68
75604;BME280;64187;51.010;13.792;2023-04-24T14:22:00;99105.28;;;17.26;36.85
75604;BME280;64187;51.010;13.792;2023-04-24T14:26:59;99103.63;;;17.16;36.03
75604;BME280;64187;51.010;13.792;2023-04-24T14:31:58;99095.03;;;17.00;36.50
75604;BME280;64187;51.010;13.792;2023-04-24T14:36:57;99111.41;;;17.32;35.87
75604;BME280;64187;51.010;13.792;2023-04-24T14:41:57;99100.50;;;17.40;36.95
75604;BME280;64187;51.010;13.792;2023-04-24T14:46:56;99106.75;;;17.41;36.63
75604;BME280;64187;51.010;13.792;2023-04-24T14:51:55;99089.00;;;17.12;36.77
75604;BME280;64187;51.010;13.792;2023-04-24T14:56:54;99099.56;;;17.54;35.27
75604;BME280;64187;51.010;13.792;2023-04-24T15:01:55;99119.28;;;17.91;35.33
75604;BME280;64187;51.010;13.792;2023-04-24T15:07:12;99119.50;;;17.46;36.72
75604;BME280;64187;51.010;13.792;2023-04-24T15:12:11;99117.22;;;17.39;35.52
75604;BME280;64187;51.010;13.792;2023-04-24T15:17:11;99123.50;;;16.99;35.54
75604;BME280;64187;51.010;13.792;2023-04-24T15:22:09;99127.56;;;17.11;35.90
75604;BME280;64187;51.010;13.792;2023-04-24T15:27:11;99128.06;;;16.82;37.43
75604;BME280;64187;51.010;13.792;2023-04-24T15:32:10;99138.94;;;16.50;36.07
75604;BME280;64187;51.010;13.792;2023-04-24T15:37:09;99142.91;;;16.44;35.96
75604;BME280;64187;51.010;13.792;2023-04-24T15:42:08;99143.47;;;16.32;36.89
75604;BME280;64187;51.010;13.792;2023-04-24T15:47:07;99151.41;;;16.20;37.60
75604;BME280;64187;51.010;13.792;2023-04-24T15:52:05;99164.41;;;16.01;37.63
75604;BME280;64187;51.010;13.792;2023-04-24T15:57:04;99159.13;;;16.04;38.74
75604;BME280;64187;51.010;13.792;2023-04-24T16:02:03;99163.25;;;16.02;38.78
75604;BME280;64187;51.010;13.792;2023-04-24T16:07:02;99157.84;;;15.74;40.19
75604;BME280;64187;51.010;13.792;2023-04-24T16:12:01;99173.09;;;15.89;40.99
75604;BME280;64187;51.010;13.792;2023-04-24T16:17:00;99173.09;;;16.03;41.22
75604;BME280;64187;51.010;13.792;2023-04-24T16:22:00;99165.13;;;15.79;42.34
75604;BME280;64187;51.010;13.792;2023-04-24T16:27:00;99178.94;;;15.96;42.41
75604;BME280;64187;51.010;13.792;2023-04-24T16:31:59;99175.81;;;15.89;42.55
75604;BME280;64187;51.010;13.792;2023-04-24T16:36:58;99180.59;;;15.83;43.47
75604;BME280;64187;51.010;13.792;2023-04-24T16:41:57;99190.78;;;15.91;43.98
75604;BME280;64187;51.010;13.792;2023-04-24T16:46:57;99197.44;;;15.44;42.92
75604;BME280;64187;51.010;13.792;2023-04-24T16:51:57;99206.88;;;15.05;43.29
75604;BME280;64187;51.010;13.792;2023-04-24T16:56:56;99222.69;;;14.89;43.81
75604;BME280;64187;51.010;13.792;2023-04-24T17:01:55;99221.44;;;14.81;44.06
75604;BME280;64187;51.010;13.792;2023-04-24T17:06:54;99218.34;;;14.88;44.38
75604;BME280;64187;51.010;13.792;2023-04-24T17:11:53;99221.63;;;14.71;44.84
75604;BME280;64187;51.010;13.792;2023-04-24T17:16:52;99230.00;;;14.37;45.91
75604;BME280;64187;51.010;13.792;2023-04-24T17:21:51;99236.69;;;14.44;46.34
75604;BME280;64187;51.010;13.792;2023-04-24T17:26:50;99245.13;;;14.43;46.55
75604;BME280;64187;51.010;13.792;2023-04-24T17:31:53;99248.56;;;14.11;47.27
75604;BME280;64187;51.010;13.792;2023-04-24T17:36:53;99271.91;;;14.17;47.51
75604;BME280;64187;51.010;13.792;2023-04-24T17:41:58;99268.19;;;14.08;47.95
75604;BME280;64187;51.010;13.792;2023-04-24T17:46:57;99284.94;;;13.96;48.80
75604;BME280;64187;51.010;13.792;2023-04-24T17:51:56;99289.97;;;13.84;49.17
75604;BME280;64187;51.010;13.792;2023-04-24T17:56:55;99288.34;;;13.83;49.62
75604;BME280;64187;51.010;13.792;2023-04-24T18:01:54;99298.81;;;13.70;49.90
75604;BME280;64187;51.010;13.792;2023-04-24T18:06:53;99305.47;;;13.59;50.29
75604;BME280;64187;51.010;13.792;2023-04-24T18:11:52;99311.31;;;13.47;50.22
75604;BME280;64187;51.010;13.792;2023-04-24T18:16:51;99317.97;;;13.60;50.17
75604;BME280;64187;51.010;13.792;2023-04-24T18:21:50;99330.00;;;13.20;50.80
75604;BME280;64187;51.010;13.792;2023-04-24T18:26:48;99344.19;;;13.06;49.75
75604;BME280;64187;51.010;13.792;2023-04-24T18:31:47;99343.19;;;12.97;50.35
75604;BME280;64187;51.010;13.792;2023-04-24T18:36:47;99344.13;;;12.77;51.26
75604;BME280;64187;51.010;13.792;2023-04-24T18:41:46;99359.13;;;12.69;51.24
75604;BME280;64187;51.010;13.792;2023-04-24T18:46:44;99363.47;;;12.65;50.37
75604;BME280;64187;51.010;13.792;2023-04-24T18:51:43;99367.66;;;12.42;51.46
75604;BME280;64187;51.010;13.792;2023-04-24T18:56:52;99379.25;;;12.58;51.18
75604;BME280;64187;51.010;13.792;2023-04-24T19:01:51;99384.16;;;12.51;51.08
75604;BME280;64187;51.010;13.792;2023-04-24T19:06:49;99395.63;;;12.43;51.15
75604;BME280;64187;51.010;13.792;2023-04-24T19:11:48;99397.03;;;12.30;51.08
75604;BME280;64187;51.010;13.792;2023-04-24T19:16:48;99409.25;;;12.12;51.53
75604;BME280;64187;51.010;13.792;2023-04-24T19:21:47;99407.91;;;12.20;51.45
75604;BME280;64187;51.010;13.792;2023-04-24T19:26:47;99418.47;;;12.16;51.62
75604;BME280;64187;51.010;13.792;2023-04-24T19:31:46;99418.75;;;12.04;51.97
75604;BME280;64187;51.010;13.792;2023-04-24T19:36:45;99411.16;;;12.06;52.40
75604;BME280;64187;51.010;13.792;2023-04-24T19:41:44;99432.63;;;12.08;52.43
75604;BME280;64187;51.010;13.792;2023-04-24T19:46:43;99426.66;;;12.06;52.67
75604;BME280;64187;51.010;13.792;2023-04-24T19:51:41;99429.88;;;11.77;53.86
75604;BME280;64187;51.010;13.792;2023-04-24T19:56:41;99419.34;;;11.66;54.23
75604;BME280;64187;51.010;13.792;2023-04-24T20:01:40;99426.09;;;11.73;54.27
75604;BME280;64187;51.010;13.792;2023-04-24T20:06:40;99431.25;;;11.75;54.57
75604;BME280;64187;51.010;13.792;2023-04-24T20:11:39;99436.66;;;11.64;54.99
75604;BME280;64187;51.010;13.792;2023-04-24T20:16:38;99448.34;;;11.80;54.62
75604;BME280;64187;51.010;13.792;2023-04-24T20:21:38;99433.94;;;11.75;54.99
75604;BME280;64187;51.010;13.792;2023-04-24T20:26:37;99443.75;;;11.55;55.99
75604;BME280;64187;51.010;13.792;2023-04-24T20:31:36;99441.53;;;11.57;55.32
75604;BME280;64187;51.010;13.792;2023-04-24T20:36:35;99449.41;;;11.64;55.74
75604;BME280;64187;51.010;13.792;2023-04-24T20:41:34;99444.81;;;11.54;55.42
75604;BME280;64187;51.010;13.792;2023-04-24T20:46:33;99446.69;;;11.43;56.24
75604;BME280;64187;51.010;13.792;2023-04-24T20:51:32;99455.38;;;11.51;56.14
75604;BME280;64187;51.010;13.792;2023-04-24T20:56:31;99449.41;;;11.38;56.49
75604;BME280;64187;51.010;13.792;2023-04-24T21:01:30;99455.06;;;11.32;56.58
75604;BME280;64187;51.010;13.792;2023-04-24T21:06:29;99457.25;;;11.35;56.64
75604;BME280;64187;51.010;13.792;2023-04-24T21:11:29;99463.75;;;11.29;56.10
75604;BME280;64187;51.010;13.792;2023-04-24T21:16:28;99455.53;;;10.98;56.38
75604;BME280;64187;51.010;13.792;2023-04-24T21:21:27;99461.00;;;11.13;56.68
75604;BME280;64187;51.010;13.792;2023-04-24T21:26:26;99455.88;;;11.22;55.92
75604;BME280;64187;51.010;13.792;2023-04-24T21:32:39;99449.38;;;11.18;56.14
75604;BME280;64187;51.010;13.792;2023-04-24T21:37:39;99453.97;;;11.17;56.22
75604;BME280;64187;51.010;13.792;2023-04-24T21:42:38;99438.28;;;11.30;55.70
75604;BME280;64187;51.010;13.792;2023-04-24T21:47:37;99440.13;;;11.09;56.66
75604;BME280;64187;51.010;13.792;2023-04-24T21:52:36;99438.78;;;11.06;56.74
75604;BME280;64187;51.010;13.792;2023-04-24T21:57:35;99441.69;;;10.89;57.83
75604;BME280;64187;51.010;13.792;2023-04-24T22:02:34;99431.94;;;10.83;58.64
75604;BME280;64187;51.010;13.792;2023-04-24T22:07:33;99428.22;;;11.10;57.79
75604;BME280;64187;51.010;13.792;2023-04-24T22:12:34;99430.91;;;11.10;58.51
75604;BME280;64187;51.010;13.792;2023-04-24T22:17:33;99428.97;;;10.90;59.09
75604;BME280;64187;51.010;13.792;2023-04-24T22:22:33;99428.19;;;11.05;58.34
75604;BME280;64187;51.010;13.792;2023-04-24T22:27:32;99421.59;;;10.70;60.54
75604;BME280;64187;51.010;13.792;2023-04-24T22:32:33;99430.16;;;10.41;61.49
75604;BME280;64187;51.010;13.792;2023-04-24T22:37:32;99428.28;;;10.04;63.06
75604;BME280;64187;51.010;13.792;2023-04-24T22:42:31;99428.28;;;10.04;63.54
75604;BME280;64187;51.010;13.792;2023-04-24T22:47:30;99430.75;;;10.11;63.70
75604;BME280;64187;51.010;13.792;2023-04-24T22:52:29;99429.94;;;10.10;63.18
75604;BME280;64187;51.010;13.792;2023-04-24T22:57:28;99437.00;;;10.11;62.83
75604;BME280;64187;51.010;13.792;2023-04-24T23:02:27;99435.00;;;9.97;62.84
75604;BME280;64187;51.010;13.792;2023-04-24T23:07:26;99440.03;;;9.83;63.41
75604;BME280;64187;51.010;13.792;2023-04-24T23:12:27;99442.69;;;9.45;64.70
75604;BME280;64187;51.010;13.792;2023-04-24T23:17:26;99444.38;;;9.52;65.08
75604;BME280;64187;51.010;13.792;2023-04-24T23:22:26;99443.13;;;9.32;65.87
75604;BME280;64187;51.010;13.792;2023-04-24T23:27:25;99438.81;;;9.68;64.71
75604;BME280;64187;51.010;13.792;2023-04-24T23:32:24;99439.13;;;9.40;65.40
75604;BME280;64187;51.010;13.792;2023-04-24T23:37:23;99434.53;;;9.73;64.83
75604;BME280;64187;51.010;13.792;2023-04-24T23:42:22;99436.91;;;10.01;64.11
75604;BME280;64187;51.010;13.792;2023-04-24T23:47:21;99432.69;;;10.21;63.61
75604;BME280;64187;51.010;13.792;2023-04-24T23:52:20;99424.66;;;9.88;64.55
75604;BME280;64187;51.010;13.792;2023-04-24T23:57:19;99421.31;;;9.44;66.60
